sensor_id;sensor_type;location;lat;lon;timestamp;P1;durP1;ratioP1;P2;durP2;ratioP2
29730;SDS011;16639;51.488;0.152;2023-08-08T00:00:22;4.88;;;2.03;;
29730;SDS011;16639;51.488;0.152;2023-08-08T00:02:50;4.97;;;1.90;;
29730;SDS011;16639;51.488;0.152;2023-08-08T00:05:17;4.22;;;1.98;;
29730;SDS011;16639;51.488;0.152;2023-08-08T00:07:44;3.92;;;1.95;;
29730;SDS011;16639;51.488;0.152;2023-08-08T00:10:12;2.85;;;1.88;;
29730;SDS011;16639;51.488;0.152;2023-08-08T00:12:39;4.40;;;2.10;;
29730;SDS011;16639;51.488;0.152;2023-08-08T00:15:07;7.35;;;2.22;;
29730;SDS011;16639;51.488;0.152;2023-08-08T00:17:35;3.58;;;2.10;;
29730;SDS011;16639;51.488;0.152;2023-08-08T00:20:03;5.05;;;1.58;;
29730;SDS011;16639;51.488;0.152;2023-08-08T00:22:31;6.68;;;2.03;;
29730;SDS011;16639;51.488;0.152;2023-08-08T00:24:58;4.28;;;1.88;;
29730;SDS011;16639;51.488;0.152;2023-08-08T00:27:26;5.40;;;2.05;;
29730;SDS011;16639;51.488;0.152;2023-08-08T00:29:53;3.40;;;2.10;;
29730;SDS011;16639;51.488;0.152;2023-08-08T00:32:21;6.45;;;2.65;;
29730;SDS011;16639;51.488;0.152;2023-08-08T00:34:48;7.68;;;2.17;;
29730;SDS011;16639;51.488;0.152;2023-08-08T00:37:16;4.40;;;2.28;;
29730;SDS011;16639;51.488;0.152;2023-08-08T00:39:43;7.40;;;2.13;;
29730;SDS011;16639;51.488;0.152;2023-08-08T00:42:12;1.92;;;1.40;;
29730;SDS011;16639;51.488;0.152;2023-08-08T00:44:40;6.50;;;2.47;;
29730;SDS011;16639;51.488;0.152;2023-08-08T00:47:08;3.78;;;2.05;;
29730;SDS011;16639;51.488;0.152;2023-08-08T00:49:36;8.40;;;2.75;;
29730;SDS011;16639;51.488;0.152;2023-08-08T00:52:05;4.63;;;2.28;;
29730;SDS011;16639;51.488;0.152;2023-08-08T00:54:33;3.95;;;1.50;;
29730;SDS011;16639;51.488;0.152;2023-08-08T00:57:01;4.68;;;1.92;;
29730;SDS011;16639;51.488;0.152;2023-08-08T00:59:28;3.78;;;2.40;;
29730;SDS011;16639;51.488;0.152;2023-08-08T01:01:56;4.40;;;2.10;;
29730;SDS011;16639;51.488;0.152;2023-08-08T01:04:25;6.13;;;2.50;;
29730;SDS011;16639;51.488;0.152;2023-08-08T01:09:55;4.35;;;2.47;;
29730;SDS011;16639;51.488;0.152;2023-08-08T01:12:31;7.80;;;2.75;;
29730;SDS011;16639;51.488;0.152;2023-08-08T01:14:59;4.60;;;2.40;;
29730;SDS011;16639;51.488;0.152;2023-08-08T01:17:27;5.07;;;2.55;;
29730;SDS011;16639;51.488;0.152;2023-08-08T01:19:55;7.97;;;2.30;;
29730;SDS011;16639;51.488;0.152;2023-08-08T01:22:24;5.45;;;2.25;;
29730;SDS011;16639;51.488;0.152;2023-08-08T01:24:56;3.47;;;2.05;;
29730;SDS011;16639;51.488;0.152;2023-08-08T01:27:24;7.57;;;2.25;;
29730;SDS011;16639;51.488;0.152;2023-08-08T01:29:52;5.43;;;2.58;;
29730;SDS011;16639;51.488;0.152;2023-08-08T01:32:20;6.68;;;2.10;;
29730;SDS011;16639;51.488;0.152;2023-08-08T01:34:50;3.05;;;2.08;;
29730;SDS011;16639;51.488;0.152;2023-08-08T01:37:19;3.60;;;2.17;;
29730;SDS011;16639;51.488;0.152;2023-08-08T01:39:51;3.78;;;2.10;;
29730;SDS011;16639;51.488;0.152;2023-08-08T01:42:21;6.50;;;2.42;;
29730;SDS011;16639;51.488;0.152;2023-08-08T01:44:50;5.70;;;2.40;;
29730;SDS011;16639;51.488;0.152;2023-08-08T01:47:19;4.10;;;2.15;;
29730;SDS011;16639;51.488;0.152;2023-08-08T01:49:48;6.40;;;1.98;;
29730;SDS011;16639;51.488;0.152;2023-08-08T01:52:15;3.35;;;1.67;;
29730;SDS011;16639;51.488;0.152;2023-08-08T01:54:43;4.63;;;2.13;;
29730;SDS011;16639;51.488;0.152;2023-08-08T01:57:10;3.40;;;2.00;;
29730;SDS011;16639;51.488;0.152;2023-08-08T01:59:38;5.75;;;2.30;;
29730;SDS011;16639;51.488;0.152;2023-08-08T02:02:06;5.82;;;2.10;;
29730;SDS011;16639;51.488;0.152;2023-08-08T02:04:33;3.85;;;2.15;;
29730;SDS011;16639;51.488;0.152;2023-08-08T02:07:01;6.43;;;2.42;;
29730;SDS011;16639;51.488;0.152;2023-08-08T02:09:28;3.45;;;2.13;;
29730;SDS011;16639;51.488;0.152;2023-08-08T02:11:56;5.80;;;2.20;;
29730;SDS011;16639;51.488;0.152;2023-08-08T02:14:24;6.45;;;2.05;;
29730;SDS011;16639;51.488;0.152;2023-08-08T02:16:53;7.38;;;2.50;;
29730;SDS011;16639;51.488;0.152;2023-08-08T02:19:21;5.85;;;2.35;;
29730;SDS011;16639;51.488;0.152;2023-08-08T02:21:48;6.13;;;1.90;;
29730;SDS011;16639;51.488;0.152;2023-08-08T02:24:16;6.60;;;2.20;;
29730;SDS011;16639;51.488;0.152;2023-08-08T02:26:43;6.10;;;2.25;;
29730;SDS011;16639;51.488;0.152;2023-08-08T02:29:11;3.88;;;2.05;;
29730;SDS011;16639;51.488;0.152;2023-08-08T02:31:38;6.70;;;2.40;;
29730;SDS011;16639;51.488;0.152;2023-08-08T02:34:05;4.32;;;2.08;;
29730;SDS011;16639;51.488;0.152;2023-08-08T02:36:33;4.90;;;2.38;;
29730;SDS011;16639;51.488;0.152;2023-08-08T02:39:00;7.13;;;2.00;;
29730;SDS011;16639;51.488;0.152;2023-08-08T02:41:28;4.43;;;2.17;;
29730;SDS011;16639;51.488;0.152;2023-08-08T02:43:55;6.15;;;2.25;;
29730;SDS011;16639;51.488;0.152;2023-08-08T02:46:23;8.65;;;2.45;;
29730;SDS011;16639;51.488;0.152;2023-08-08T02:48:51;4.30;;;1.92;;
29730;SDS011;16639;51.488;0.152;2023-08-08T02:51:18;6.65;;;2.33;;
29730;SDS011;16639;51.488;0.152;2023-08-08T02:53:46;6.85;;;2.15;;
29730;SDS011;16639;51.488;0.152;2023-08-08T02:56:13;4.53;;;1.77;;
29730;SDS011;16639;51.488;0.152;2023-08-08T02:58:41;10.35;;;2.10;;
29730;SDS011;16639;51.488;0.152;2023-08-08T03:01:08;3.92;;;1.92;;
29730;SDS011;16639;51.488;0.152;2023-08-08T03:03:35;8.20;;;2.17;;
29730;SDS011;16639;51.488;0.152;2023-08-08T03:06:03;2.53;;;1.95;;
29730;SDS011;16639;51.488;0.152;2023-08-08T03:08:30;6.25;;;3.17;;
29730;SDS011;16639;51.488;0.152;2023-08-08T03:10:58;5.75;;;2.17;;
29730;SDS011;16639;51.488;0.152;2023-08-08T03:13:26;2.60;;;2.10;;
29730;SDS011;16639;51.488;0.152;2023-08-08T03:15:53;5.13;;;2.60;;
29730;SDS011;16639;51.488;0.152;2023-08-08T03:18:21;4.45;;;2.25;;
29730;SDS011;16639;51.488;0.152;2023-08-08T03:20:49;5.95;;;2.40;;
29730;SDS011;16639;51.488;0.152;2023-08-08T03:23:17;3.42;;;2.05;;
29730;SDS011;16639;51.488;0.152;2023-08-08T03:25:44;3.35;;;2.40;;
29730;SDS011;16639;51.488;0.152;2023-08-08T03:28:12;2.55;;;2.20;;
29730;SDS011;16639;51.488;0.152;2023-08-08T03:30:39;4.03;;;2.03;;
29730;SDS011;16639;51.488;0.152;2023-08-08T03:33:07;9.57;;;2.50;;
29730;SDS011;16639;51.488;0.152;2023-08-08T03:35:34;6.75;;;2.15;;
29730;SDS011;16639;51.488;0.152;2023-08-08T03:38:01;4.75;;;2.15;;
29730;SDS011;16639;51.488;0.152;2023-08-08T03:40:30;3.33;;;2.20;;
29730;SDS011;16639;51.488;0.152;2023-08-08T03:42:57;5.53;;;2.42;;
29730;SDS011;16639;51.488;0.152;2023-08-08T03:45:24;6.13;;;3.03;;
29730;SDS011;16639;51.488;0.152;2023-08-08T03:47:52;7.43;;;2.55;;
29730;SDS011;16639;51.488;0.152;2023-08-08T03:50:19;5.55;;;2.05;;
29730;SDS011;16639;51.488;0.152;2023-08-08T03:52:47;5.35;;;2.30;;
29730;SDS011;16639;51.488;0.152;2023-08-08T03:55:15;6.38;;;2.63;;
29730;SDS011;16639;51.488;0.152;2023-08-08T03:57:43;6.10;;;2.20;;
29730;SDS011;16639;51.488;0.152;2023-08-08T04:00:11;4.88;;;2.10;;
29730;SDS011;16639;51.488;0.152;2023-08-08T04:02:39;9.00;;;2.85;;
29730;SDS011;16639;51.488;0.152;2023-08-08T04:05:06;5.80;;;2.47;;
29730;SDS011;16639;51.488;0.152;2023-08-08T04:07:35;2.80;;;1.83;;
29730;SDS011;16639;51.488;0.152;2023-08-08T04:10:02;6.13;;;2.38;;
29730;SDS011;16639;51.488;0.152;2023-08-08T04:12:30;3.55;;;2.40;;
29730;SDS011;16639;51.488;0.152;2023-08-08T04:14:59;5.85;;;2.42;;
29730;SDS011;16639;51.488;0.152;2023-08-08T04:17:27;5.55;;;2.13;;
29730;SDS011;16639;51.488;0.152;2023-08-08T04:19:55;5.85;;;2.15;;
29730;SDS011;16639;51.488;0.152;2023-08-08T04:22:22;5.05;;;2.10;;
29730;SDS011;16639;51.488;0.152;2023-08-08T04:24:50;6.28;;;2.25;;
29730;SDS011;16639;51.488;0.152;2023-08-08T04:27:17;7.60;;;2.33;;
29730;SDS011;16639;51.488;0.152;2023-08-08T04:29:47;6.63;;;2.33;;
29730;SDS011;16639;51.488;0.152;2023-08-08T04:32:15;1.88;;;1.67;;
29730;SDS011;16639;51.488;0.152;2023-08-08T04:34:42;7.40;;;2.72;;
29730;SDS011;16639;51.488;0.152;2023-08-08T04:37:10;5.57;;;2.58;;
29730;SDS011;16639;51.488;0.152;2023-08-08T04:39:37;6.70;;;2.45;;
29730;SDS011;16639;51.488;0.152;2023-08-08T04:42:05;6.72;;;2.40;;
29730;SDS011;16639;51.488;0.152;2023-08-08T04:44:32;4.15;;;2.15;;
29730;SDS011;16639;51.488;0.152;2023-08-08T04:47:00;5.55;;;2.30;;
29730;SDS011;16639;51.488;0.152;2023-08-08T04:49:27;3.63;;;2.20;;
29730;SDS011;16639;51.488;0.152;2023-08-08T04:51:55;5.50;;;2.00;;
29730;SDS011;16639;51.488;0.152;2023-08-08T04:54:23;5.82;;;2.35;;
29730;SDS011;16639;51.488;0.152;2023-08-08T04:56:52;6.03;;;2.42;;
29730;SDS011;16639;51.488;0.152;2023-08-08T04:59:19;9.05;;;2.35;;
29730;SDS011;16639;51.488;0.152;2023-08-08T05:01:47;7.70;;;2.45;;
29730;SDS011;16639;51.488;0.152;2023-08-08T05:04:14;3.70;;;2.00;;
29730;SDS011;16639;51.488;0.152;2023-08-08T05:06:44;2.83;;;2.35;;
29730;SDS011;16639;51.488;0.152;2023-08-08T05:09:13;7.13;;;2.25;;
29730;SDS011;16639;51.488;0.152;2023-08-08T05:11:40;9.50;;;2.13;;
29730;SDS011;16639;51.488;0.152;2023-08-08T05:14:07;3.60;;;1.63;;
29730;SDS011;16639;51.488;0.152;2023-08-08T05:16:35;5.13;;;2.67;;
29730;SDS011;16639;51.488;0.152;2023-08-08T05:19:02;3.42;;;1.73;;
29730;SDS011;16639;51.488;0.152;2023-08-08T05:21:30;7.20;;;2.25;;
29730;SDS011;16639;51.488;0.152;2023-08-08T05:24:00;5.70;;;2.30;;
29730;SDS011;16639;51.488;0.152;2023-08-08T05:26:27;5.20;;;2.10;;
29730;SDS011;16639;51.488;0.152;2023-08-08T05:28:55;6.88;;;2.28;;
29730;SDS011;16639;51.488;0.152;2023-08-08T05:31:23;7.93;;;1.98;;
29730;SDS011;16639;51.488;0.152;2023-08-08T05:33:51;6.25;;;2.53;;
29730;SDS011;16639;51.488;0.152;2023-08-08T05:36:18;3.17;;;1.92;;
29730;SDS011;16639;51.488;0.152;2023-08-08T05:38:45;8.05;;;2.90;;
29730;SDS011;16639;51.488;0.152;2023-08-08T05:41:13;5.40;;;2.20;;
29730;SDS011;16639;51.488;0.152;2023-08-08T05:43:40;4.40;;;2.30;;
29730;SDS011;16639;51.488;0.152;2023-08-08T05:46:09;6.07;;;2.22;;
29730;SDS011;16639;51.488;0.152;2023-08-08T05:48:37;4.85;;;2.67;;
29730;SDS011;16639;51.488;0.152;2023-08-08T05:51:07;7.63;;;2.50;;
29730;SDS011;16639;51.488;0.152;2023-08-08T05:53:34;6.65;;;2.10;;
29730;SDS011;16639;51.488;0.152;2023-08-08T05:56:02;7.47;;;2.58;;
29730;SDS011;16639;51.488;0.152;2023-08-08T05:58:30;5.47;;;2.45;;
29730;SDS011;16639;51.488;0.152;2023-08-08T06:00:57;4.68;;;2.42;;
29730;SDS011;16639;51.488;0.152;2023-08-08T06:03:24;7.50;;;2.95;;
29730;SDS011;16639;51.488;0.152;2023-08-08T06:05:52;4.82;;;2.10;;
29730;SDS011;16639;51.488;0.152;2023-08-08T06:08:20;6.32;;;2.50;;
29730;SDS011;16639;51.488;0.152;2023-08-08T06:10:47;5.43;;;2.35;;
29730;SDS011;16639;51.488;0.152;2023-08-08T06:13:15;10.90;;;2.63;;
29730;SDS011;16639;51.488;0.152;2023-08-08T06:15:42;4.35;;;2.22;;
29730;SDS011;16639;51.488;0.152;2023-08-08T06:18:10;2.85;;;1.65;;
29730;SDS011;16639;51.488;0.152;2023-08-08T06:20:37;5.65;;;2.50;;
29730;SDS011;16639;51.488;0.152;2023-08-08T06:23:05;4.50;;;2.50;;
29730;SDS011;16639;51.488;0.152;2023-08-08T06:25:32;3.20;;;2.25;;
29730;SDS011;16639;51.488;0.152;2023-08-08T06:28:00;6.10;;;2.30;;
29730;SDS011;16639;51.488;0.152;2023-08-08T06:30:27;2.70;;;1.80;;
29730;SDS011;16639;51.488;0.152;2023-08-08T06:32:55;4.15;;;2.55;;
29730;SDS011;16639;51.488;0.152;2023-08-08T06:35:22;9.93;;;2.90;;
29730;SDS011;16639;51.488;0.152;2023-08-08T06:37:50;4.18;;;2.35;;
29730;SDS011;16639;51.488;0.152;2023-08-08T06:40:17;4.07;;;2.47;;
29730;SDS011;16639;51.488;0.152;2023-08-08T06:42:45;14.35;;;3.50;;
29730;SDS011;16639;51.488;0.152;2023-08-08T06:45:12;11.35;;;4.78;;
29730;SDS011;16639;51.488;0.152;2023-08-08T06:47:40;10.60;;;3.33;;
29730;SDS011;16639;51.488;0.152;2023-08-08T06:50:08;7.85;;;3.53;;
29730;SDS011;16639;51.488;0.152;2023-08-08T06:52:36;5.32;;;2.90;;
29730;SDS011;16639;51.488;0.152;2023-08-08T06:55:03;10.55;;;3.35;;
29730;SDS011;16639;51.488;0.152;2023-08-08T06:57:32;6.93;;;3.55;;
29730;SDS011;16639;51.488;0.152;2023-08-08T07:00:00;5.25;;;3.25;;
29730;SDS011;16639;51.488;0.152;2023-08-08T07:02:27;4.78;;;2.50;;
29730;SDS011;16639;51.488;0.152;2023-08-08T07:04:55;6.18;;;2.40;;
29730;SDS011;16639;51.488;0.152;2023-08-08T07:07:22;7.80;;;2.90;;
29730;SDS011;16639;51.488;0.152;2023-08-08T07:09:50;8.52;;;2.80;;
29730;SDS011;16639;51.488;0.152;2023-08-08T07:12:17;7.53;;;3.10;;
29730;SDS011;16639;51.488;0.152;2023-08-08T07:14:45;10.60;;;4.13;;
29730;SDS011;16639;51.488;0.152;2023-08-08T07:17:12;30.63;;;8.43;;
29730;SDS011;16639;51.488;0.152;2023-08-08T07:19:39;18.90;;;6.97;;
29730;SDS011;16639;51.488;0.152;2023-08-08T07:22:08;14.10;;;4.63;;
29730;SDS011;16639;51.488;0.152;2023-08-08T07:24:35;13.07;;;4.03;;
29730;SDS011;16639;51.488;0.152;2023-08-08T07:27:03;9.02;;;3.63;;
29730;SDS011;16639;51.488;0.152;2023-08-08T07:29:30;6.15;;;3.17;;
29730;SDS011;16639;51.488;0.152;2023-08-08T07:31:57;7.85;;;2.80;;
29730;SDS011;16639;51.488;0.152;2023-08-08T07:34:25;5.30;;;2.67;;
29730;SDS011;16639;51.488;0.152;2023-08-08T07:36:53;5.40;;;2.85;;
29730;SDS011;16639;51.488;0.152;2023-08-08T07:39:21;8.18;;;2.70;;
29730;SDS011;16639;51.488;0.152;2023-08-08T07:41:48;9.68;;;2.67;;
29730;SDS011;16639;51.488;0.152;2023-08-08T07:44:16;4.65;;;2.88;;
29730;SDS011;16639;51.488;0.152;2023-08-08T07:46:43;4.57;;;2.65;;
29730;SDS011;16639;51.488;0.152;2023-08-08T07:49:11;5.22;;;2.42;;
29730;SDS011;16639;51.488;0.152;2023-08-08T07:51:38;6.07;;;2.80;;
29730;SDS011;16639;51.488;0.152;2023-08-08T07:54:06;6.28;;;2.92;;
29730;SDS011;16639;51.488;0.152;2023-08-08T07:56:35;4.10;;;2.35;;
29730;SDS011;16639;51.488;0.152;2023-08-08T07:59:03;9.80;;;2.80;;
29730;SDS011;16639;51.488;0.152;2023-08-08T08:01:30;4.68;;;2.35;;
29730;SDS011;16639;51.488;0.152;2023-08-08T08:03:58;8.93;;;3.00;;
29730;SDS011;16639;51.488;0.152;2023-08-08T08:06:25;5.57;;;2.55;;
29730;SDS011;16639;51.488;0.152;2023-08-08T08:08:53;6.43;;;2.78;;
29730;SDS011;16639;51.488;0.152;2023-08-08T08:11:21;4.93;;;2.63;;
29730;SDS011;16639;51.488;0.152;2023-08-08T08:13:48;4.95;;;2.97;;
29730;SDS011;16639;51.488;0.152;2023-08-08T08:16:16;8.63;;;2.97;;
29730;SDS011;16639;51.488;0.152;2023-08-08T08:18:46;9.00;;;4.07;;
29730;SDS011;16639;51.488;0.152;2023-08-08T08:21:14;3.80;;;2.58;;
29730;SDS011;16639;51.488;0.152;2023-08-08T08:23:44;2.53;;;2.33;;
29730;SDS011;16639;51.488;0.152;2023-08-08T08:26:13;4.55;;;2.30;;
29730;SDS011;16639;51.488;0.152;2023-08-08T08:28:40;4.90;;;1.92;;
29730;SDS011;16639;51.488;0.152;2023-08-08T08:31:08;7.75;;;3.53;;
29730;SDS011;16639;51.488;0.152;2023-08-08T08:33:36;3.97;;;2.10;;
29730;SDS011;16639;51.488;0.152;2023-08-08T08:36:03;3.20;;;1.60;;
29730;SDS011;16639;51.488;0.152;2023-08-08T08:38:31;5.45;;;1.98;;
29730;SDS011;16639;51.488;0.152;2023-08-08T08:40:58;4.32;;;2.00;;
29730;SDS011;16639;51.488;0.152;2023-08-08T08:43:26;2.85;;;2.03;;
29730;SDS011;16639;51.488;0.152;2023-08-08T08:45:54;4.75;;;1.83;;
29730;SDS011;16639;51.488;0.152;2023-08-08T08:48:23;5.43;;;2.15;;
29730;SDS011;16639;51.488;0.152;2023-08-08T08:50:52;4.47;;;1.73;;
29730;SDS011;16639;51.488;0.152;2023-08-08T08:53:19;1.83;;;1.65;;
29730;SDS011;16639;51.488;0.152;2023-08-08T08:55:49;2.10;;;1.73;;
29730;SDS011;16639;51.488;0.152;2023-08-08T08:58:17;6.22;;;1.98;;
29730;SDS011;16639;51.488;0.152;2023-08-08T09:00:46;5.03;;;1.92;;
29730;SDS011;16639;51.488;0.152;2023-08-08T09:03:15;1.95;;;1.50;;
29730;SDS011;16639;51.488;0.152;2023-08-08T09:05:43;4.95;;;1.80;;
29730;SDS011;16639;51.488;0.152;2023-08-08T09:08:11;2.35;;;1.50;;
29730;SDS011;16639;51.488;0.152;2023-08-08T09:10:39;2.97;;;1.63;;
29730;SDS011;16639;51.488;0.152;2023-08-08T09:13:07;3.50;;;1.70;;
29730;SDS011;16639;51.488;0.152;2023-08-08T09:15:35;2.67;;;1.35;;
29730;SDS011;16639;51.488;0.152;2023-08-08T09:18:02;2.85;;;1.67;;
29730;SDS011;16639;51.488;0.152;2023-08-08T09:20:30;2.10;;;1.55;;
29730;SDS011;16639;51.488;0.152;2023-08-08T09:22:58;2.35;;;1.35;;
29730;SDS011;16639;51.488;0.152;2023-08-08T09:25:26;5.75;;;1.75;;
29730;SDS011;16639;51.488;0.152;2023-08-08T09:27:53;2.15;;;1.40;;
29730;SDS011;16639;51.488;0.152;2023-08-08T09:30:22;1.95;;;1.38;;
29730;SDS011;16639;51.488;0.152;2023-08-08T09:32:49;2.35;;;1.35;;
29730;SDS011;16639;51.488;0.152;2023-08-08T09:35:17;4.85;;;2.03;;
29730;SDS011;16639;51.488;0.152;2023-08-08T09:37:46;1.75;;;1.40;;
29730;SDS011;16639;51.488;0.152;2023-08-08T09:40:13;5.57;;;2.17;;
29730;SDS011;16639;51.488;0.152;2023-08-08T09:42:41;2.60;;;1.80;;
29730;SDS011;16639;51.488;0.152;2023-08-08T09:45:09;4.63;;;1.73;;
29730;SDS011;16639;51.488;0.152;2023-08-08T09:47:37;3.47;;;1.75;;
29730;SDS011;16639;51.488;0.152;2023-08-08T09:50:05;1.58;;;1.25;;
29730;SDS011;16639;51.488;0.152;2023-08-08T09:52:34;1.92;;;1.23;;
29730;SDS011;16639;51.488;0.152;2023-08-08T09:55:07;2.88;;;1.52;;
29730;SDS011;16639;51.488;0.152;2023-08-08T09:57:38;2.63;;;1.70;;
29730;SDS011;16639;51.488;0.152;2023-08-08T10:00:07;2.47;;;1.90;;
29730;SDS011;16639;51.488;0.152;2023-08-08T10:02:43;2.88;;;1.67;;
29730;SDS011;16639;51.488;0.152;2023-08-08T10:05:13;6.82;;;2.20;;
29730;SDS011;16639;51.488;0.152;2023-08-08T10:07:42;2.88;;;2.08;;
29730;SDS011;16639;51.488;0.152;2023-08-08T10:10:10;3.92;;;2.03;;
29730;SDS011;16639;51.488;0.152;2023-08-08T10:12:40;3.30;;;1.73;;
29730;SDS011;16639;51.488;0.152;2023-08-08T10:15:09;5.25;;;2.47;;
29730;SDS011;16639;51.488;0.152;2023-08-08T10:17:37;3.45;;;1.98;;
29730;SDS011;16639;51.488;0.152;2023-08-08T10:20:07;2.53;;;1.80;;
29730;SDS011;16639;51.488;0.152;2023-08-08T10:22:42;5.78;;;1.80;;
29730;SDS011;16639;51.488;0.152;2023-08-08T10:25:24;1.55;;;1.38;;
29730;SDS011;16639;51.488;0.152;2023-08-08T10:28:04;4.05;;;1.60;;
29730;SDS011;16639;51.488;0.152;2023-08-08T10:33:26;2.75;;;1.10;;
29730;SDS011;16639;51.488;0.152;2023-08-08T10:35:57;2.75;;;1.80;;
29730;SDS011;16639;51.488;0.152;2023-08-08T10:38:46;3.88;;;1.98;;
29730;SDS011;16639;51.488;0.152;2023-08-08T10:41:20;2.60;;;1.63;;
29730;SDS011;16639;51.488;0.152;2023-08-08T10:43:49;4.25;;;1.35;;
29730;SDS011;16639;51.488;0.152;2023-08-08T10:46:25;2.35;;;1.23;;
29730;SDS011;16639;51.488;0.152;2023-08-08T10:49:01;1.10;;;1.00;;
29730;SDS011;16639;51.488;0.152;2023-08-08T10:51:39;1.23;;;1.13;;
29730;SDS011;16639;51.488;0.152;2023-08-08T10:54:16;2.25;;;1.20;;
29730;SDS011;16639;51.488;0.152;2023-08-08T10:56:47;1.75;;;1.30;;
29730;SDS011;16639;51.488;0.152;2023-08-08T10:59:22;2.77;;;1.33;;
29730;SDS011;16639;51.488;0.152;2023-08-08T11:01:51;1.38;;;1.27;;
29730;SDS011;16639;51.488;0.152;2023-08-08T11:04:20;1.45;;;1.30;;
29730;SDS011;16639;51.488;0.152;2023-08-08T11:06:55;2.10;;;1.80;;
29730;SDS011;16639;51.488;0.152;2023-08-08T11:09:23;5.70;;;1.80;;
29730;SDS011;16639;51.488;0.152;2023-08-08T11:11:50;2.00;;;1.80;;
29730;SDS011;16639;51.488;0.152;2023-08-08T11:14:19;3.22;;;1.70;;
29730;SDS011;16639;51.488;0.152;2023-08-08T11:16:48;3.50;;;1.83;;
29730;SDS011;16639;51.488;0.152;2023-08-08T11:19:18;4.28;;;1.88;;
29730;SDS011;16639;51.488;0.152;2023-08-08T11:21:50;2.78;;;2.00;;
29730;SDS011;16639;51.488;0.152;2023-08-08T11:24:18;3.88;;;2.10;;
29730;SDS011;16639;51.488;0.152;2023-08-08T11:26:45;2.40;;;2.20;;
29730;SDS011;16639;51.488;0.152;2023-08-08T11:29:14;3.15;;;1.90;;
29730;SDS011;16639;51.488;0.152;2023-08-08T11:31:42;2.30;;;1.80;;
29730;SDS011;16639;51.488;0.152;2023-08-08T11:34:09;3.10;;;2.22;;
29730;SDS011;16639;51.488;0.152;2023-08-08T11:36:38;8.00;;;2.63;;
29730;SDS011;16639;51.488;0.152;2023-08-08T11:39:06;3.03;;;2.38;;
29730;SDS011;16639;51.488;0.152;2023-08-08T11:41:36;3.97;;;2.65;;
29730;SDS011;16639;51.488;0.152;2023-08-08T11:44:05;5.57;;;2.15;;
29730;SDS011;16639;51.488;0.152;2023-08-08T11:46:42;7.20;;;2.58;;
29730;SDS011;16639;51.488;0.152;2023-08-08T11:49:13;3.63;;;2.30;;
29730;SDS011;16639;51.488;0.152;2023-08-08T11:51:42;5.20;;;2.60;;
29730;SDS011;16639;51.488;0.152;2023-08-08T11:54:11;5.57;;;2.97;;
29730;SDS011;16639;51.488;0.152;2023-08-08T11:56:40;5.07;;;2.80;;
29730;SDS011;16639;51.488;0.152;2023-08-08T11:59:08;4.10;;;2.78;;
29730;SDS011;16639;51.488;0.152;2023-08-08T12:01:37;3.53;;;2.90;;
29730;SDS011;16639;51.488;0.152;2023-08-08T12:04:05;6.40;;;4.32;;
29730;SDS011;16639;51.488;0.152;2023-08-08T12:06:36;5.68;;;3.38;;
29730;SDS011;16639;51.488;0.152;2023-08-08T12:09:07;3.92;;;2.88;;
29730;SDS011;16639;51.488;0.152;2023-08-08T12:11:39;5.32;;;3.60;;
29730;SDS011;16639;51.488;0.152;2023-08-08T12:14:07;5.20;;;2.92;;
29730;SDS011;16639;51.488;0.152;2023-08-08T12:16:40;4.03;;;2.88;;
29730;SDS011;16639;51.488;0.152;2023-08-08T12:19:10;4.38;;;3.63;;
29730;SDS011;16639;51.488;0.152;2023-08-08T12:21:39;7.75;;;3.28;;
29730;SDS011;16639;51.488;0.152;2023-08-08T12:24:07;5.78;;;3.90;;
29730;SDS011;16639;51.488;0.152;2023-08-08T12:26:34;5.75;;;3.60;;
29730;SDS011;16639;51.488;0.152;2023-08-08T12:29:02;5.13;;;4.28;;
29730;SDS011;16639;51.488;0.152;2023-08-08T12:31:30;4.22;;;3.60;;
29730;SDS011;16639;51.488;0.152;2023-08-08T12:33:58;5.20;;;4.70;;
29730;SDS011;16639;51.488;0.152;2023-08-08T12:36:25;7.88;;;4.78;;
29730;SDS011;16639;51.488;0.152;2023-08-08T12:38:53;9.35;;;5.20;;
29730;SDS011;16639;51.488;0.152;2023-08-08T12:41:20;5.07;;;4.57;;
29730;SDS011;16639;51.488;0.152;2023-08-08T12:43:48;5.55;;;4.47;;
29730;SDS011;16639;51.488;0.152;2023-08-08T12:46:16;6.75;;;4.45;;
29730;SDS011;16639;51.488;0.152;2023-08-08T12:48:44;5.63;;;4.03;;
29730;SDS011;16639;51.488;0.152;2023-08-08T12:51:11;4.40;;;4.00;;
29730;SDS011;16639;51.488;0.152;2023-08-08T12:53:39;3.95;;;3.53;;
29730;SDS011;16639;51.488;0.152;2023-08-08T12:56:06;4.03;;;3.58;;
29730;SDS011;16639;51.488;0.152;2023-08-08T12:58:33;5.85;;;4.32;;
29730;SDS011;16639;51.488;0.152;2023-08-08T13:01:01;3.70;;;3.10;;
29730;SDS011;16639;51.488;0.152;2023-08-08T13:03:29;3.25;;;2.90;;
29730;SDS011;16639;51.488;0.152;2023-08-08T13:05:57;2.92;;;2.55;;
29730;SDS011;16639;51.488;0.152;2023-08-08T13:08:26;3.88;;;2.45;;
29730;SDS011;16639;51.488;0.152;2023-08-08T13:10:54;3.42;;;2.10;;
29730;SDS011;16639;51.488;0.152;2023-08-08T13:13:21;2.78;;;2.10;;
29730;SDS011;16639;51.488;0.152;2023-08-08T13:15:51;3.35;;;1.90;;
29730;SDS011;16639;51.488;0.152;2023-08-08T13:18:19;3.15;;;1.77;;
29730;SDS011;16639;51.488;0.152;2023-08-08T13:20:46;1.17;;;1.08;;
29730;SDS011;16639;51.488;0.152;2023-08-08T13:23:14;3.78;;;1.45;;
29730;SDS011;16639;51.488;0.152;2023-08-08T13:25:42;3.10;;;1.13;;
29730;SDS011;16639;51.488;0.152;2023-08-08T13:28:09;2.00;;;1.40;;
29730;SDS011;16639;51.488;0.152;2023-08-08T13:30:37;1.60;;;1.00;;
29730;SDS011;16639;51.488;0.152;2023-08-08T13:33:06;1.38;;;1.20;;
29730;SDS011;16639;51.488;0.152;2023-08-08T13:35:33;1.17;;;1.17;;
29730;SDS011;16639;51.488;0.152;2023-08-08T13:38:01;1.27;;;1.17;;
29730;SDS011;16639;51.488;0.152;2023-08-08T13:40:29;1.20;;;1.10;;
29730;SDS011;16639;51.488;0.152;2023-08-08T13:42:56;4.55;;;0.88;;
29730;SDS011;16639;51.488;0.152;2023-08-08T13:45:24;2.13;;;1.05;;
29730;SDS011;16639;51.488;0.152;2023-08-08T13:47:52;1.15;;;1.02;;
29730;SDS011;16639;51.488;0.152;2023-08-08T13:50:19;1.85;;;1.25;;
29730;SDS011;16639;51.488;0.152;2023-08-08T13:52:47;2.30;;;1.17;;
29730;SDS011;16639;51.488;0.152;2023-08-08T13:55:15;1.70;;;1.15;;
29730;SDS011;16639;51.488;0.152;2023-08-08T13:57:42;1.30;;;1.20;;
29730;SDS011;16639;51.488;0.152;2023-08-08T14:00:10;1.13;;;1.05;;
29730;SDS011;16639;51.488;0.152;2023-08-08T14:02:39;1.85;;;1.38;;
29730;SDS011;16639;51.488;0.152;2023-08-08T14:05:07;2.25;;;1.35;;
29730;SDS011;16639;51.488;0.152;2023-08-08T14:07:35;3.17;;;1.60;;
29730;SDS011;16639;51.488;0.152;2023-08-08T14:10:03;2.22;;;1.42;;
29730;SDS011;16639;51.488;0.152;2023-08-08T14:12:31;2.78;;;1.50;;
29730;SDS011;16639;51.488;0.152;2023-08-08T14:14:58;3.83;;;1.40;;
29730;SDS011;16639;51.488;0.152;2023-08-08T14:17:26;2.47;;;1.65;;
29730;SDS011;16639;51.488;0.152;2023-08-08T14:19:54;2.35;;;1.35;;
29730;SDS011;16639;51.488;0.152;2023-08-08T14:22:21;3.83;;;1.98;;
29730;SDS011;16639;51.488;0.152;2023-08-08T14:24:49;3.42;;;2.38;;
29730;SDS011;16639;51.488;0.152;2023-08-08T14:27:16;2.60;;;2.05;;
29730;SDS011;16639;51.488;0.152;2023-08-08T14:29:44;2.75;;;2.03;;
29730;SDS011;16639;51.488;0.152;2023-08-08T14:32:11;5.88;;;2.45;;
29730;SDS011;16639;51.488;0.152;2023-08-08T14:34:39;3.30;;;2.97;;
29730;SDS011;16639;51.488;0.152;2023-08-08T14:37:06;4.32;;;2.58;;
29730;SDS011;16639;51.488;0.152;2023-08-08T14:39:34;4.93;;;2.65;;
29730;SDS011;16639;51.488;0.152;2023-08-08T14:42:04;4.78;;;2.83;;
29730;SDS011;16639;51.488;0.152;2023-08-08T14:44:32;6.13;;;3.00;;
29730;SDS011;16639;51.488;0.152;2023-08-08T14:47:00;8.45;;;2.75;;
29730;SDS011;16639;51.488;0.152;2023-08-08T14:49:27;4.15;;;2.67;;
29730;SDS011;16639;51.488;0.152;2023-08-08T14:51:55;5.95;;;3.53;;
29730;SDS011;16639;51.488;0.152;2023-08-08T14:54:23;5.10;;;2.60;;
29730;SDS011;16639;51.488;0.152;2023-08-08T14:56:50;4.07;;;2.60;;
29730;SDS011;16639;51.488;0.152;2023-08-08T14:59:18;4.80;;;2.70;;